createdAt,value
2023-03-11T00:01:03.061Z,2.10
2023-03-11T00:03:35.352Z,2.00
2023-03-11T00:06:08.619Z,2.10
2023-03-11T00:08:37.211Z,2.00
2023-03-11T00:11:14.605Z,1.90
2023-03-11T00:13:44.787Z,1.90
2023-03-11T00:16:16.181Z,1.70
2023-03-11T00:18:52.853Z,1.80
2023-03-11T00:21:27.931Z,1.70
2023-03-11T00:24:10.880Z,1.70
2023-03-11T00:26:41.317Z,1.70
2023-03-11T00:29:16.580Z,1.70
2023-03-11T00:31:51.706Z,1.80
2023-03-11T00:34:25.808Z,1.80
2023-03-11T00:36:56.340Z,1.90
2023-03-11T00:39:29.936Z,1.90
2023-03-11T00:42:14.324Z,1.90
2023-03-11T00:44:43.293Z,1.90
2023-03-11T00:47:14.329Z,1.90
2023-03-11T00:49:47.510Z,1.70
2023-03-11T00:52:21.364Z,1.80
2023-03-11T00:54:55.936Z,1.80
2023-03-11T00:57:28.149Z,1.90
2023-03-11T01:00:00.619Z,1.70
2023-03-11T01:02:33.394Z,1.70
2023-03-11T01:05:08.704Z,1.80
2023-03-11T01:07:45.229Z,1.80
2023-03-11T01:10:27.002Z,1.70
2023-03-11T01:12:58.929Z,1.70
2023-03-11T01:15:31.516Z,1.70
2023-03-11T01:18:33.900Z,1.80
2023-03-11T01:24:18.074Z,1.70
2023-03-11T01:26:50.671Z,1.70
2023-03-11T01:29:28.028Z,1.70
2023-03-11T01:31:59.870Z,1.70
2023-03-11T01:34:33.807Z,1.60
2023-03-11T01:37:11.027Z,1.60
2023-03-11T01:39:39.658Z,1.70
2023-03-11T01:42:17.862Z,1.70
2023-03-11T01:44:48.638Z,1.70
2023-03-11T01:47:40.545Z,1.70
2023-03-11T01:50:15.219Z,1.70
2023-03-11T01:52:48.917Z,1.60
2023-03-11T01:55:21.675Z,1.60
2023-03-11T01:57:55.092Z,1.60
2023-03-11T02:00:26.388Z,1.50
2023-03-11T02:03:01.265Z,1.50
2023-03-11T02:05:35.691Z,1.60
2023-03-11T02:08:08.353Z,1.50
2023-03-11T02:10:45.028Z,1.50
2023-03-11T02:13:15.788Z,1.60
2023-03-11T02:15:52.014Z,1.50
2023-03-11T02:18:25.022Z,1.50
2023-03-11T02:21:09.484Z,1.60
2023-03-11T02:23:52.500Z,1.60
2023-03-11T02:26:30.396Z,1.50
2023-03-11T02:29:06.546Z,1.60
2023-03-11T02:31:38.387Z,1.60
2023-03-11T02:34:15.030Z,1.60
2023-03-11T02:36:50.874Z,1.60
2023-03-11T02:39:36.663Z,1.50
2023-03-11T02:42:13.651Z,1.40
2023-03-11T02:44:48.269Z,1.50
2023-03-11T02:47:32.818Z,1.50
2023-03-11T02:50:04.686Z,1.50
2023-03-11T02:52:42.267Z,1.50
2023-03-11T02:55:16.290Z,1.60
2023-03-11T02:57:53.143Z,1.60
2023-03-11T03:00:31.803Z,1.60
2023-03-11T03:03:05.363Z,1.50
2023-03-11T03:05:41.855Z,1.40
2023-03-11T03:08:13.219Z,1.40
2023-03-11T03:16:37.849Z,1.20
2023-03-11T03:19:11.581Z,1.30
2023-03-11T03:21:45.407Z,1.30
2023-03-11T03:24:19.045Z,1.30
2023-03-11T03:26:50.584Z,1.20
2023-03-11T03:29:23.801Z,1.20
2023-03-11T03:31:56.530Z,1.30
2023-03-11T03:34:38.111Z,1.20
2023-03-11T03:37:07.209Z,1.10
2023-03-11T03:39:40.794Z,1.20
2023-03-11T03:42:25.308Z,1.20
2023-03-11T03:44:55.947Z,1.30
2023-03-11T03:47:30.817Z,1.30
2023-03-11T03:50:04.501Z,1.20
2023-03-11T03:52:42.245Z,1.20
2023-03-11T03:55:16.001Z,1.10
2023-03-11T03:57:50.760Z,1.10
2023-03-11T04:00:25.097Z,1.20
2023-03-11T04:03:00.218Z,1.20
2023-03-11T04:05:32.341Z,1.30
2023-03-11T04:08:04.007Z,1.40
2023-03-11T04:10:34.662Z,1.40
2023-03-11T04:13:08.849Z,1.20
2023-03-11T04:15:42.301Z,1.20
2023-03-11T04:18:16.754Z,1.20
2023-03-11T04:20:46.991Z,1.30
2023-03-11T04:23:21.100Z,1.30
2023-03-11T04:25:53.065Z,1.20
2023-03-11T04:28:27.101Z,1.30
2023-03-11T04:30:58.441Z,1.20
2023-03-11T04:33:30.491Z,1.20
2023-03-11T04:36:09.024Z,1.30
2023-03-11T04:38:40.663Z,1.20
2023-03-11T04:41:15.458Z,1.20
2023-03-11T04:43:46.119Z,1.20
2023-03-11T04:46:17.068Z,1.30
2023-03-11T04:48:54.753Z,1.30
2023-03-11T04:51:28.074Z,1.20
2023-03-11T04:54:01.352Z,1.20
2023-03-11T04:56:32.912Z,1.10
2023-03-11T04:59:03.745Z,1.20
2023-03-11T05:01:37.339Z,1.30
2023-03-11T05:04:08.656Z,1.20
2023-03-11T05:06:37.374Z,1.30
2023-03-11T05:09:35.325Z,1.20
2023-03-11T05:12:07.945Z,1.10
2023-03-11T05:14:41.018Z,1.10
2023-03-11T05:17:18.014Z,1.10
2023-03-11T05:19:49.951Z,1.10
2023-03-11T05:22:25.366Z,0.90
2023-03-11T05:24:57.498Z,0.80
2023-03-11T05:27:28.329Z,0.80
2023-03-11T05:30:07.132Z,0.80
2023-03-11T05:32:38.820Z,0.80
2023-03-11T05:35:13.384Z,0.80
2023-03-11T05:37:45.193Z,0.90
2023-03-11T05:40:16.295Z,1.00
2023-03-11T05:42:46.954Z,1.00
2023-03-11T05:45:20.999Z,0.90
2023-03-11T05:47:53.143Z,0.90
2023-03-11T05:50:26.228Z,0.90
2023-03-11T05:53:03.310Z,0.90
2023-03-11T05:55:34.479Z,0.90
2023-03-11T05:58:05.310Z,0.80
2023-03-11T06:00:42.977Z,0.80
2023-03-11T06:03:11.668Z,0.80
2023-03-11T06:06:04.068Z,0.80
2023-03-11T06:08:35.969Z,0.90
2023-03-11T06:11:17.081Z,0.80
2023-03-11T06:14:03.979Z,0.70
2023-03-11T06:16:37.431Z,0.80
2023-03-11T06:19:10.033Z,0.90
2023-03-11T06:21:42.918Z,0.80
2023-03-11T06:24:25.302Z,0.70
2023-03-11T06:27:04.621Z,0.70
2023-03-11T06:29:40.607Z,0.80
2023-03-11T06:32:11.929Z,0.70
2023-03-11T06:34:58.468Z,0.80
2023-03-11T06:37:39.432Z,0.90
2023-03-11T06:40:15.836Z,0.90
2023-03-11T06:43:02.190Z,1.00
2023-03-11T06:46:24.749Z,1.00
2023-03-11T06:49:08.261Z,1.00
2023-03-11T06:51:43.242Z,1.10
2023-03-11T06:54:26.774Z,1.10
2023-03-11T06:57:14.465Z,1.30
2023-03-11T06:59:45.277Z,1.40
2023-03-11T07:02:24.081Z,1.40
2023-03-11T07:05:03.200Z,1.50
2023-03-11T07:10:32.290Z,1.60
2023-03-11T07:13:04.382Z,1.70
2023-03-11T07:15:56.406Z,1.80
2023-03-11T07:18:32.069Z,1.80
2023-03-11T07:21:12.385Z,1.80
2023-03-11T07:23:58.594Z,1.90
2023-03-11T07:26:39.831Z,1.90
2023-03-11T07:29:11.627Z,2.00
2023-03-11T07:31:43.364Z,1.90
2023-03-11T07:34:18.836Z,2.00
2023-03-11T07:36:55.314Z,2.10
2023-03-11T07:39:26.566Z,2.10
2023-03-11T07:41:56.838Z,2.10
2023-03-11T07:44:31.144Z,2.10
2023-03-11T07:47:03.318Z,2.30
2023-03-11T07:49:43.529Z,2.40
2023-03-11T07:52:23.539Z,2.50
2023-03-11T07:55:05.836Z,2.60
2023-03-11T07:57:38.928Z,2.70
2023-03-11T08:00:20.865Z,2.70
2023-03-11T08:03:02.411Z,2.60
2023-03-11T08:05:51.543Z,2.60
2023-03-11T08:08:23.234Z,2.50
2023-03-11T08:11:14.852Z,2.40
2023-03-11T08:13:51.783Z,2.50
2023-03-11T08:16:23.573Z,2.50
2023-03-11T08:19:05.067Z,2.50
2023-03-11T08:21:36.934Z,2.70
2023-03-11T08:24:12.162Z,2.80
2023-03-11T08:26:43.371Z,2.90
2023-03-11T08:29:17.568Z,2.80
2023-03-11T08:31:53.763Z,2.70
2023-03-11T08:34:23.985Z,2.60
2023-03-11T08:36:55.469Z,2.60
2023-03-11T08:39:26.202Z,2.70
2023-03-11T08:42:00.990Z,2.80
2023-03-11T08:44:32.764Z,3.00
2023-03-11T08:47:03.349Z,3.20
2023-03-11T08:49:36.597Z,3.30
2023-03-11T08:52:06.454Z,3.30
2023-03-11T08:54:35.593Z,3.70
2023-03-11T08:57:08.060Z,3.80
2023-03-11T08:59:46.083Z,3.90
2023-03-11T09:02:17.534Z,3.90
2023-03-11T09:04:47.641Z,3.70
2023-03-11T09:07:18.572Z,3.50
2023-03-11T09:09:50.150Z,3.50
2023-03-11T09:12:20.804Z,3.30
2023-03-11T09:14:58.936Z,3.30
2023-03-11T09:17:30.584Z,3.40
2023-03-11T09:20:02.643Z,3.40
2023-03-11T09:22:33.788Z,3.50
2023-03-11T09:25:05.107Z,3.50
2023-03-11T09:27:37.710Z,3.50
2023-03-11T09:30:13.061Z,3.60
2023-03-11T09:32:44.537Z,3.60
2023-03-11T09:35:16.393Z,3.60
2023-03-11T09:37:45.334Z,3.40
2023-03-11T09:40:20.102Z,3.20
2023-03-11T09:43:00.633Z,2.80
2023-03-11T09:45:36.407Z,2.60
2023-03-11T09:48:18.401Z,2.40
2023-03-11T09:50:53.744Z,2.50
2023-03-11T09:53:39.385Z,2.60
2023-03-11T09:56:11.871Z,2.70
2023-03-11T09:58:45.621Z,2.80
2023-03-11T10:01:19.814Z,3.00
2023-03-11T10:03:55.405Z,3.20
2023-03-11T10:06:27.553Z,3.40
2023-03-11T10:09:02.791Z,3.50
2023-03-11T10:11:47.172Z,3.60
2023-03-11T10:14:36.849Z,3.80
2023-03-11T10:17:17.652Z,3.80
2023-03-11T10:19:56.994Z,4.10
2023-03-11T10:22:35.132Z,4.30
2023-03-11T10:25:15.904Z,4.40
2023-03-11T10:27:55.236Z,4.40
2023-03-11T10:30:36.107Z,4.40
2023-03-11T10:33:21.695Z,4.50
2023-03-11T10:36:00.052Z,4.60
2023-03-11T10:38:40.403Z,5.10
2023-03-11T10:41:21.756Z,5.50
2023-03-11T10:43:58.378Z,5.70
2023-03-11T10:46:36.985Z,5.90
2023-03-11T10:49:16.772Z,5.70
2023-03-11T10:51:50.193Z,5.90
2023-03-11T10:54:36.201Z,6.10
2023-03-11T10:57:21.536Z,6.10
2023-03-11T11:00:00.494Z,6.10
2023-03-11T11:02:39.270Z,6.10
2023-03-11T11:05:32.790Z,6.10
2023-03-11T11:08:09.579Z,6.00
2023-03-11T11:10:50.798Z,6.60
2023-03-11T11:13:30.487Z,6.70
2023-03-11T11:16:06.116Z,6.30
2023-03-11T11:18:43.788Z,5.80
2023-03-11T11:21:19.166Z,5.30
2023-03-11T11:24:04.368Z,4.60
2023-03-11T11:26:35.680Z,4.30
2023-03-11T11:29:15.264Z,4.20
2023-03-11T11:31:47.385Z,4.20
2023-03-11T11:34:39.457Z,4.10
2023-03-11T11:37:17.404Z,4.20
2023-03-11T11:39:52.721Z,4.10
2023-03-11T11:42:26.234Z,4.20
2023-03-11T11:45:03.665Z,4.20
2023-03-11T11:47:42.040Z,4.30
2023-03-11T11:50:18.134Z,4.40
2023-03-11T11:52:55.421Z,4.40
2023-03-11T11:55:28.893Z,4.50
2023-03-11T11:58:00.757Z,4.50
2023-03-11T12:00:38.020Z,4.40
2023-03-11T12:03:23.803Z,4.50
2023-03-11T12:05:58.472Z,4.40
2023-03-11T12:08:36.042Z,4.40
2023-03-11T12:11:09.502Z,4.50
2023-03-11T12:14:03.731Z,4.70
2023-03-11T12:16:43.931Z,4.80
2023-03-11T12:19:34.492Z,5.10
2023-03-11T12:22:27.944Z,5.30
2023-03-11T12:25:23.773Z,5.50
2023-03-11T12:28:00.910Z,5.50
2023-03-11T12:30:42.420Z,5.20
2023-03-11T12:33:22.344Z,5.30
2023-03-11T12:35:56.302Z,5.40
2023-03-11T12:38:35.523Z,5.40
2023-03-11T12:41:32.027Z,5.50
2023-03-11T12:44:19.305Z,5.50
2023-03-11T12:47:23.326Z,5.30
2023-03-11T12:50:14.932Z,5.50
2023-03-11T12:52:58.709Z,5.60
2023-03-11T12:55:39.185Z,5.60
2023-03-11T12:58:38.079Z,5.50
2023-03-11T13:01:48.536Z,5.60
2023-03-11T13:04:48.265Z,5.60
2023-03-11T13:07:51.716Z,5.50
2023-03-11T13:10:36.252Z,5.70
2023-03-11T13:13:25.185Z,5.60
2023-03-11T13:15:58.202Z,5.60
2023-03-11T13:18:32.692Z,5.60
2023-03-11T13:21:02.843Z,5.70
2023-03-11T13:23:40.648Z,5.70
2023-03-11T13:26:38.885Z,5.60
2023-03-11T13:29:47.501Z,5.40
2023-03-11T13:32:52.212Z,5.20
2023-03-11T13:35:37.557Z,5.30
2023-03-11T13:38:33.872Z,5.30
2023-03-11T13:41:05.746Z,5.60
2023-03-11T13:43:36.659Z,5.60
2023-03-11T13:46:14.728Z,5.50
2023-03-11T13:48:49.106Z,5.10
2023-03-11T13:51:27.854Z,4.90
2023-03-11T13:54:01.950Z,4.60
2023-03-11T13:56:39.478Z,5.10
2023-03-11T13:59:23.679Z,5.60
2023-03-11T14:01:57.900Z,5.30
2023-03-11T14:04:33.907Z,5.20
2023-03-11T14:07:14.964Z,5.30
2023-03-11T14:09:47.479Z,5.20
2023-03-11T14:12:19.791Z,5.20
2023-03-11T14:15:02.076Z,5.30
2023-03-11T14:17:30.616Z,5.40
2023-03-11T14:20:15.144Z,5.30
2023-03-11T14:22:48.994Z,5.10
2023-03-11T14:25:22.390Z,5.00
2023-03-11T14:27:58.117Z,4.90
2023-03-11T14:30:33.895Z,4.80
2023-03-11T14:33:20.092Z,4.90
2023-03-11T14:36:00.014Z,4.90
2023-03-11T14:38:33.122Z,4.80
2023-03-11T14:41:10.357Z,4.80
2023-03-11T14:43:45.857Z,4.90
2023-03-11T14:46:23.408Z,4.90
2023-03-11T14:48:54.938Z,4.80
2023-03-11T14:51:34.785Z,4.80
2023-03-11T14:54:12.507Z,4.70
2023-03-11T14:56:46.418Z,4.70
2023-03-11T14:59:23.525Z,4.50
2023-03-11T15:02:00.004Z,4.60
2023-03-11T15:04:35.130Z,4.70
2023-03-11T15:07:08.606Z,4.70
2023-03-11T15:09:44.452Z,4.80
2023-03-11T15:12:35.121Z,4.90
2023-03-11T15:15:22.231Z,5.10
2023-03-11T15:18:00.661Z,5.20
2023-03-11T15:20:42.053Z,5.20
2023-03-11T15:23:24.298Z,5.00
2023-03-11T15:25:53.356Z,5.10
2023-03-11T15:28:30.195Z,5.10
2023-03-11T15:31:16.865Z,4.90
2023-03-11T15:33:54.497Z,4.80
2023-03-11T15:36:39.756Z,4.70
2023-03-11T15:39:14.939Z,4.60
2023-03-11T15:41:43.929Z,4.60
2023-03-11T15:44:32.749Z,4.60
2023-03-11T15:47:06.455Z,4.40
2023-03-11T15:49:43.472Z,4.30
2023-03-11T15:52:12.785Z,4.20
2023-03-11T15:54:54.677Z,4.40
2023-03-11T15:57:29.007Z,4.20
2023-03-11T16:00:05.508Z,4.20
2023-03-11T16:02:36.034Z,4.20
2023-03-11T16:05:13.939Z,4.20
2023-03-11T16:07:44.684Z,4.30
2023-03-11T16:10:18.148Z,4.30
2023-03-11T16:12:49.644Z,4.30
2023-03-11T16:15:29.817Z,4.30
2023-03-11T16:18:01.921Z,4.30
2023-03-11T16:20:35.854Z,4.40
2023-03-11T16:23:06.769Z,4.30
2023-03-11T16:25:41.548Z,4.20
2023-03-11T16:28:15.495Z,4.20
2023-03-11T16:30:49.288Z,4.10
2023-03-11T16:33:19.614Z,3.90
2023-03-11T16:35:50.924Z,3.80
2023-03-11T16:38:20.798Z,3.60
2023-03-11T16:41:00.052Z,3.60
2023-03-11T16:43:32.974Z,3.50
2023-03-11T16:46:05.100Z,3.50
2023-03-11T16:48:35.746Z,3.50
2023-03-11T16:51:04.908Z,3.60
2023-03-11T16:53:38.309Z,3.70
2023-03-11T16:56:10.919Z,3.80
2023-03-11T16:58:42.371Z,3.80
2023-03-11T17:01:14.232Z,3.80
2023-03-11T17:03:46.027Z,3.80
2023-03-11T17:06:20.902Z,3.80
2023-03-11T17:08:52.974Z,3.70
2023-03-11T17:11:29.824Z,3.50
2023-03-11T17:14:15.778Z,3.40
2023-03-11T17:16:46.496Z,3.40
2023-03-11T17:19:17.241Z,3.30
2023-03-11T17:21:59.614Z,3.10
2023-03-11T17:24:29.865Z,3.10
2023-03-11T17:27:02.862Z,3.00
2023-03-11T17:29:35.766Z,2.90
2023-03-11T17:32:20.173Z,2.80
2023-03-11T17:34:50.711Z,2.60
2023-03-11T17:37:24.553Z,2.60
2023-03-11T17:39:58.498Z,2.40
2023-03-11T17:42:35.517Z,2.20
2023-03-11T17:45:04.511Z,2.00
2023-03-11T17:47:37.219Z,1.70
2023-03-11T17:50:08.811Z,1.60
2023-03-11T17:52:40.052Z,1.50
2023-03-11T17:55:12.690Z,1.40
2023-03-11T17:57:45.757Z,1.20
2023-03-11T18:00:21.437Z,1.20
2023-03-11T18:02:55.570Z,1.10
2023-03-11T18:05:29.479Z,1.10
2023-03-11T18:08:08.428Z,1.00
2023-03-11T18:10:39.823Z,1.00
2023-03-11T18:13:12.302Z,1.00
2023-03-11T18:15:45.056Z,1.00
2023-03-11T18:18:13.933Z,0.90
2023-03-11T18:20:54.535Z,0.90
2023-03-11T18:23:23.199Z,0.90
2023-03-11T18:26:04.484Z,0.80
2023-03-11T18:28:48.847Z,0.80
2023-03-11T18:31:28.469Z,0.80
2023-03-11T18:34:03.820Z,0.70
2023-03-11T18:36:39.150Z,0.60
2023-03-11T18:39:15.829Z,0.50
2023-03-11T18:42:06.152Z,0.50
2023-03-11T18:44:43.015Z,0.50
2023-03-11T18:47:12.313Z,0.50
2023-03-11T18:49:42.834Z,0.50
2023-03-11T18:52:19.455Z,0.50
2023-03-11T18:54:51.493Z,0.40
2023-03-11T18:57:23.094Z,0.30
2023-03-11T19:00:00.389Z,0.30
2023-03-11T19:02:35.971Z,0.20
2023-03-11T19:05:07.685Z,0.20
2023-03-11T19:07:45.662Z,0.10
2023-03-11T19:10:20.033Z,0.10
2023-03-11T19:12:53.190Z,0.10
2023-03-11T19:15:50.344Z,0.10
2023-03-11T19:18:19.335Z,0.10
2023-03-11T19:21:03.174Z,0.20
2023-03-11T19:23:37.837Z,0.30
2023-03-11T19:26:11.946Z,0.20
2023-03-11T19:28:46.698Z,0.00
2023-03-11T19:31:17.323Z,-0.10
2023-03-11T19:33:51.255Z,-0.20
2023-03-11T19:36:22.732Z,-0.20
2023-03-11T19:38:53.646Z,-0.20
2023-03-11T19:41:25.243Z,-0.30
2023-03-11T19:43:58.096Z,-0.50
2023-03-11T19:46:42.600Z,-0.50
2023-03-11T19:49:18.605Z,-0.50
2023-03-11T19:51:50.710Z,-0.50
2023-03-11T19:54:37.719Z,-0.60
2023-03-11T19:57:08.457Z,-0.60
2023-03-11T19:59:46.985Z,-0.60
2023-03-11T20:02:25.148Z,-0.70
2023-03-11T20:04:56.845Z,-0.80
2023-03-11T20:07:35.946Z,-0.80
2023-03-11T20:10:08.013Z,-0.80
2023-03-11T20:13:02.130Z,-0.80
2023-03-11T20:15:40.651Z,-0.70
2023-03-11T20:18:13.151Z,-0.70
2023-03-11T20:20:59.252Z,-0.70
2023-03-11T20:23:33.397Z,-0.80
2023-03-11T20:26:20.975Z,-0.80
2023-03-11T20:28:59.940Z,-0.90
2023-03-11T20:31:30.621Z,-0.80
2023-03-11T20:34:26.637Z,-0.70
2023-03-11T20:37:27.701Z,-0.60
2023-03-11T20:40:06.879Z,-0.70
2023-03-11T20:42:43.379Z,-0.80
2023-03-11T20:45:24.087Z,-0.90
2023-03-11T20:48:10.804Z,-0.80
2023-03-11T20:50:52.301Z,-0.80
2023-03-11T20:53:26.630Z,-1.00
2023-03-11T20:56:15.110Z,-1.00
2023-03-11T20:58:49.468Z,-0.90
2023-03-11T21:01:42.927Z,-1.00
2023-03-11T21:04:16.310Z,-1.00
2023-03-11T21:07:05.022Z,-1.00
2023-03-11T21:09:35.764Z,-1.10
2023-03-11T21:12:10.192Z,-1.20
2023-03-11T21:14:47.406Z,-1.30
2023-03-11T21:17:29.128Z,-1.40
2023-03-11T21:20:00.001Z,-1.50
2023-03-11T21:22:57.691Z,-1.60
2023-03-11T21:25:32.189Z,-1.60
2023-03-11T21:28:06.150Z,-1.60
2023-03-11T21:30:40.479Z,-1.50
2023-03-11T21:33:14.400Z,-1.40
2023-03-11T21:35:50.145Z,-1.40
2023-03-11T21:38:25.924Z,-1.40
2023-03-11T21:41:06.759Z,-1.50
2023-03-11T21:43:55.202Z,-1.50
2023-03-11T21:49:35.698Z,-1.40
2023-03-11T21:52:10.438Z,-1.50
2023-03-11T21:54:47.864Z,-1.60
2023-03-11T21:57:36.063Z,-1.70
2023-03-11T22:00:10.291Z,-1.70
2023-03-11T22:02:40.834Z,-1.70
2023-03-11T22:05:20.237Z,-1.70
2023-03-11T22:07:54.830Z,-1.70
2023-03-11T22:10:30.613Z,-1.70
2023-03-11T22:13:04.128Z,-1.80
2023-03-11T22:15:39.324Z,-1.90
2023-03-11T22:18:13.442Z,-1.90
2023-03-11T22:20:46.855Z,-1.70
2023-03-11T22:23:17.597Z,-1.70
2023-03-11T22:25:49.703Z,-1.70
2023-03-11T22:28:20.201Z,-1.80
2023-03-11T22:30:50.649Z,-1.80
2023-03-11T22:33:21.349Z,-1.90
2023-03-11T22:35:59.838Z,-2.00
2023-03-11T22:38:30.953Z,-2.00
2023-03-11T22:41:06.202Z,-2.10
2023-03-11T22:43:43.214Z,-2.10
2023-03-11T22:46:13.927Z,-2.10
2023-03-11T22:48:45.261Z,-2.00
2023-03-11T22:51:23.391Z,-2.00
2023-03-11T22:54:10.240Z,-2.10
2023-03-11T22:56:43.281Z,-2.10
2023-03-11T22:59:16.174Z,-2.00
2023-03-11T23:01:49.902Z,-2.00
2023-03-11T23:04:23.145Z,-2.10
2023-03-11T23:06:57.260Z,-2.20
2023-03-11T23:09:28.400Z,-2.20
2023-03-11T23:12:10.831Z,-2.30
2023-03-11T23:14:45.212Z,-2.30
2023-03-11T23:17:24.790Z,-2.20
2023-03-11T23:19:57.534Z,-2.20
2023-03-11T23:22:31.818Z,-2.30
2023-03-11T23:25:07.022Z,-2.30
2023-03-11T23:27:45.450Z,-2.30
2023-03-11T23:30:22.526Z,-2.30
2023-03-11T23:32:53.359Z,-2.40
2023-03-11T23:35:29.634Z,-2.40
2023-03-11T23:37:58.415Z,-2.40
2023-03-11T23:40:42.802Z,-2.40
2023-03-11T23:43:14.417Z,-2.30
2023-03-11T23:45:48.274Z,-2.30
2023-03-11T23:48:18.371Z,-2.30
2023-03-11T23:51:08.653Z,-2.20
2023-03-11T23:53:39.903Z,-2.30
2023-03-11T23:56:26.096Z,-2.30
2023-03-11T23:58:58.872Z,-2.40
